Time;durP1;ratioP1;P1;durP2;ratioP2;P2;SDS_P1;SDS_P2;PMS_P1;PMS_P2;Temp;Humidity;BMP_temperature;BMP_pressure;BME280_temperature;BME280_humidity;BME280_pressure;Samples;Min_cycle;Max_cycle;Signal;HPM_P1;HPM_P2
2022/09/27 00:02:20;;;;;;;6.90;1.92;;;;;;;9.22;99.67;99605.78;5045414;28;20116;-77
2022/09/27 00:04:45;;;;;;;3.90;0.80;;;;;;;9.27;99.79;99600.16;5024737;28;20462;-78
2022/09/27 00:07:11;;;;;;;4.75;0.82;;;;;;;9.30;99.76;99597.28;5035537;28;20033;-78
2022/09/27 00:09:37;;;;;;;7.72;1.50;;;;;;;9.17;99.68;99602.00;5039265;28;20460;-78
2022/09/27 00:12:03;;;;;;;3.83;1.02;;;;;;;9.21;99.60;99593.81;5034217;28;20041;-78
2022/09/27 00:14:28;;;;;;;8.48;1.83;;;;;;;9.12;99.82;99599.88;5040763;28;20017;-78
2022/09/27 00:16:54;;;;;;;4.30;1.05;;;;;;;9.15;100.00;99609.09;5044569;28;20056;-78
2022/09/27 00:19:22;;;;;;;7.15;1.30;;;;;;;9.07;99.60;99609.03;5027627;28;20021;-77
2022/09/27 00:21:49;;;;;;;7.25;1.13;;;;;;;9.15;99.74;99609.09;5028026;28;20354;-78
2022/09/27 00:24:20;;;;;;;4.90;1.05;;;;;;;9.16;99.25;99615.91;5039847;28;20028;-78
2022/09/27 00:26:47;;;;;;;5.47;1.45;;;;;;;9.11;99.56;99612.94;5033311;28;20051;-77
2022/09/27 00:29:14;;;;;;;4.82;0.85;;;;;;;9.14;100.00;99613.47;5024930;28;20057;-77
2022/09/27 00:31:40;;;;;;;4.43;1.00;;;;;;;9.11;99.70;99618.09;5036073;28;20021;-77
2022/09/27 00:34:06;;;;;;;6.82;1.25;;;;;;;9.03;100.00;99616.25;5040262;28;20025;-78
2022/09/27 00:36:32;;;;;;;4.72;0.80;;;;;;;9.09;100.00;99620.03;5036735;28;20508;-78
2022/09/27 00:38:58;;;;;;;4.80;0.93;;;;;;;9.12;99.85;99625.72;5027199;28;20045;-78
2022/09/27 00:41:27;;;;;;;5.93;1.05;;;;;;;9.09;100.00;99635.53;5045347;28;20036;-77
2022/09/27 00:44:03;;;;;;;3.28;0.80;;;;;;;9.14;100.00;99628.16;5030636;28;20030;-78
2022/09/27 00:46:47;;;;;;;6.90;1.20;;;;;;;9.12;100.00;99625.72;5036509;28;20065;-77
2022/09/27 00:49:22;;;;;;;2.97;0.80;;;;;;;9.17;100.00;99633.03;5028455;28;20037;-77
2022/09/27 00:51:54;;;;;;;4.18;0.82;;;;;;;9.12;100.00;99625.72;5043126;28;20017;-78
2022/09/27 00:54:23;;;;;;;8.55;1.13;;;;;;;9.15;100.00;99619.44;5045715;28;20032;-78
2022/09/27 00:56:50;;;;;;;4.47;1.05;;;;;;;9.18;100.00;99619.16;5044228;28;20024;-78
2022/09/27 00:59:47;;;;;;;5.35;1.40;;;;;;;9.14;100.00;99615.22;5044823;28;20056;-78
2022/09/27 01:02:12;;;;;;;6.30;1.10;;;;;;;9.20;100.00;99623.22;5040151;28;20122;-77
2022/09/27 01:04:39;;;;;;;4.40;0.98;;;;;;;9.18;100.00;99621.75;5047782;28;20009;-78
2022/09/27 01:07:05;;;;;;;4.32;1.38;;;;;;;9.19;100.00;99620.78;5047856;28;20037;-78
2022/09/27 01:09:31;;;;;;;5.07;1.17;;;;;;;9.18;100.00;99625.16;5042977;28;20060;-78
2022/09/27 01:12:35;;;;;;;4.57;1.10;;;;;;;9.19;100.00;99631.13;5040090;28;20048;-77
2022/09/27 01:15:24;;;;;;;4.47;1.30;;;;;;;9.16;100.00;99636.59;4959034;28;20038;-78
2022/09/27 01:18:13;;;;;;;5.00;0.90;;;;;;;9.16;100.00;99631.41;4967602;28;20479;-76
2022/09/27 01:20:45;;;;;;;6.78;1.33;;;;;;;9.09;100.00;99640.72;4964795;28;20403;-78
2022/09/27 01:24:01;;;;;;;3.45;0.57;;;;;;;9.22;100.00;99646.34;4967609;28;20039;-78
2022/09/27 01:26:39;;;;;;;6.10;1.25;;;;;;;9.16;100.00;99631.41;4946861;28;20038;-78
2022/09/27 01:29:32;;;;;;;4.95;1.10;;;;;;;9.21;100.00;99642.94;4981797;28;20041;-78
2022/09/27 01:32:11;;;;;;;4.72;0.70;;;;;;;9.20;99.82;99635.34;4966679;28;20707;-78
2022/09/27 01:35:19;;;;;;;5.22;1.05;;;;;;;9.19;100.00;99637.13;4979421;28;20023;-78
2022/09/27 01:38:10;;;;;;;5.00;0.70;;;;;;;9.14;99.57;99621.22;4965753;28;20098;-78
2022/09/27 01:40:47;;;;;;;5.32;1.10;;;;;;;9.10;99.32;99632.00;4966353;28;20028;-77
2022/09/27 01:43:23;;;;;;;4.63;0.77;;;;;;;9.16;99.60;99641.75;4975771;28;20046;-77
2022/09/27 01:45:58;;;;;;;4.97;1.10;;;;;;;9.09;99.89;99638.13;4964968;28;20174;-77
2022/09/27 01:48:27;;;;;;;3.67;0.75;;;;;;;9.04;99.49;99636.78;4982641;28;20060;-77
2022/09/27 01:51:05;;;;;;;4.70;0.70;;;;;;;9.13;99.30;99642.88;5022733;28;20040;-77
2022/09/27 01:53:40;;;;;;;2.58;0.77;;;;;;;9.09;99.16;99640.72;5043660;28;20037;-78
2022/09/27 01:56:12;;;;;;;2.03;0.60;;;;;;;9.14;99.50;99643.69;5044634;28;20037;-78
2022/09/27 01:58:48;;;;;;;5.15;0.88;;;;;;;9.03;99.18;99627.41;5026613;28;20021;-77
2022/09/27 02:01:15;;;;;;;4.70;0.95;;;;;;;9.15;98.38;99642.72;5046984;28;20469;-78
2022/09/27 02:03:48;;;;;;;5.70;1.20;;;;;;;8.96;98.38;99641.88;5032877;28;20028;-78
2022/09/27 02:06:22;;;;;;;6.25;1.42;;;;;;;9.00;98.66;99648.41;5040869;28;20115;-78
2022/09/27 02:08:57;;;;;;;4.72;1.13;;;;;;;8.93;98.46;99643.91;5035487;28;20033;-78
2022/09/27 02:11:22;;;;;;;5.45;0.73;;;;;;;8.99;98.75;99628.63;5032745;28;20033;-77
2022/09/27 02:14:14;;;;;;;7.85;1.25;;;;;;;8.91;99.15;99625.97;5047660;28;20051;-78
2022/09/27 02:16:49;;;;;;;4.70;0.95;;;;;;;8.97;98.69;99648.66;5047101;28;20029;-78
2022/09/27 02:19:24;;;;;;;4.70;1.00;;;;;;;9.01;98.45;99644.84;5040657;28;20060;-78
2022/09/27 02:22:02;;;;;;;3.80;0.77;;;;;;;9.06;98.24;99647.00;5039982;28;20393;-78
2022/09/27 02:24:40;;;;;;;6.78;1.42;;;;;;;9.01;97.56;99634.50;5047305;28;20028;-78
2022/09/27 02:27:15;;;;;;;3.85;0.98;;;;;;;9.01;98.17;99642.25;5041407;28;20056;-78
2022/09/27 02:29:49;;;;;;;6.10;0.77;;;;;;;9.04;97.96;99652.31;5038433;28;20067;-78
2022/09/27 02:32:15;;;;;;;7.55;1.25;;;;;;;9.03;97.82;99637.75;5046596;28;20079;-77
2022/09/27 02:34:42;;;;;;;5.95;1.00;;;;;;;8.97;97.84;99638.31;5023862;28;20815;-78
2022/09/27 02:37:08;;;;;;;9.68;1.08;;;;;;;9.03;97.91;99637.75;5021085;28;20541;-77
2022/09/27 02:39:33;;;;;;;5.88;1.02;;;;;;;8.96;97.37;99641.88;5028757;28;20033;-77
2022/09/27 02:41:59;;;;;;;11.82;1.52;;;;;;;8.85;97.77;99643.84;5042245;28;20037;-77
2022/09/27 02:44:26;;;;;;;5.85;1.15;;;;;;;8.93;97.78;99642.16;5033871;28;20439;-77
2022/09/27 02:46:58;;;;;;;3.88;0.70;;;;;;;8.95;97.27;99645.44;5029331;28;20512;-78
2022/09/27 02:49:41;;;;;;;8.07;1.25;;;;;;;8.90;97.51;99642.44;5038674;28;20099;-77
2022/09/27 02:52:09;;;;;;;8.32;1.50;;;;;;;8.86;98.00;99645.47;5045286;28;20060;-78
2022/09/27 02:54:58;;;;;;;6.35;1.33;;;;;;;8.93;98.10;99642.16;5038041;28;20056;-78
2022/09/27 02:57:40;;;;;;;6.85;1.80;;;;;;;8.85;98.52;99644.66;5040717;28;20020;-78
2022/09/27 03:00:14;;;;;;;5.32;1.27;;;;;;;8.85;98.25;99634.31;5043623;28;20025;-78
2022/09/27 03:02:45;;;;;;;6.75;1.08;;;;;;;8.85;98.42;99644.66;5034722;28;20032;-77
2022/09/27 03:05:21;;;;;;;4.00;1.38;;;;;;;8.86;98.17;99648.84;5046238;28;20028;-77
2022/09/27 03:07:47;;;;;;;9.10;1.15;;;;;;;8.84;97.50;99648.19;5035785;28;20031;-78
2022/09/27 03:10:21;;;;;;;2.97;1.00;;;;;;;8.81;97.51;99658.81;5037057;28;20026;-78
2022/09/27 03:12:47;;;;;;;5.93;0.95;;;;;;;8.71;97.04;99637.34;5031479;28;20466;-78
2022/09/27 03:15:13;;;;;;;6.13;1.30;;;;;;;8.72;97.42;99644.16;5045656;28;20032;-77
2022/09/27 03:17:39;;;;;;;4.88;1.35;;;;;;;8.64;97.18;99642.28;5046575;28;20070;-77
2022/09/27 03:20:05;;;;;;;3.15;0.93;;;;;;;8.70;97.47;99635.72;5046311;28;20044;-77
2022/09/27 03:22:31;;;;;;;4.47;1.00;;;;;;;8.62;97.24;99628.69;5046295;28;20119;-78
2022/09/27 03:24:57;;;;;;;6.25;1.13;;;;;;;8.60;97.38;99630.59;5027655;28;20148;-77
2022/09/27 03:27:22;;;;;;;4.68;1.02;;;;;;;8.60;97.36;99634.94;5045983;28;20032;-78
2022/09/27 03:29:48;;;;;;;9.93;1.58;;;;;;;8.44;97.79;99635.56;5047178;28;20021;-78
2022/09/27 03:32:13;;;;;;;7.43;1.95;;;;;;;8.48;97.94;99642.84;5044886;28;20382;-78
2022/09/27 03:34:39;;;;;;;5.60;1.38;;;;;;;8.47;97.64;99637.84;5018362;28;20100;-77
2022/09/27 03:37:04;;;;;;;12.07;2.30;;;;;;;8.44;98.08;99662.19;5046177;28;20373;-78
2022/09/27 03:39:29;;;;;;;6.43;2.03;;;;;;;8.45;97.83;99653.50;5045672;28;20025;-78
2022/09/27 03:41:55;;;;;;;8.23;2.08;;;;;;;8.50;98.19;99668.59;5046064;28;20066;-77
2022/09/27 03:44:21;;;;;;;6.60;2.55;;;;;;;8.45;98.04;99652.69;5029202;28;20036;-78
2022/09/27 03:46:46;;;;;;;6.68;1.70;;;;;;;8.47;98.98;99661.91;5039168;28;20045;-78
2022/09/27 03:49:11;;;;;;;6.53;1.80;;;;;;;8.50;98.44;99671.97;5030531;28;20508;-78
2022/09/27 03:51:37;;;;;;;6.78;1.88;;;;;;;8.46;98.32;99665.44;5032022;28;20059;-78
2022/09/27 03:54:02;;;;;;;5.00;1.55;;;;;;;8.48;98.65;99663.53;5027440;28;20029;-78
2022/09/27 03:56:28;;;;;;;5.60;1.48;;;;;;;8.49;98.48;99656.63;5043375;28;20445;-77
2022/09/27 03:58:53;;;;;;;8.15;2.13;;;;;;;8.46;98.45;99659.47;5041280;28;20029;-77
2022/09/27 04:01:19;;;;;;;6.85;1.25;;;;;;;8.52;98.52;99659.72;5024335;28;20495;-77
2022/09/27 04:03:44;;;;;;;9.40;1.98;;;;;;;8.52;98.14;99649.38;5034944;28;20388;-78
2022/09/27 04:06:10;;;;;;;7.88;1.30;;;;;;;8.52;97.71;99646.78;5036537;28;20469;-78
2022/09/27 04:08:36;;;;;;;5.00;1.20;;;;;;;8.56;97.46;99641.38;5034994;28;20469;-78
2022/09/27 04:11:02;;;;;;;8.80;1.35;;;;;;;8.54;97.29;99645.84;5032021;28;20038;-78
2022/09/27 04:13:28;;;;;;;5.32;1.27;;;;;;;8.51;96.97;99634.84;5037529;28;20359;-78
2022/09/27 04:15:53;;;;;;;7.80;1.15;;;;;;;8.56;97.08;99643.94;5036177;28;20037;-77
2022/09/27 04:18:19;;;;;;;5.47;0.90;;;;;;;8.54;96.05;99635.50;5024393;28;20066;-78
2022/09/27 04:20:44;;;;;;;3.10;0.85;;;;;;;8.57;96.14;99645.56;5033317;28;20021;-77
2022/09/27 04:23:10;;;;;;;4.78;0.70;;;;;;;8.48;95.47;99632.53;5021848;28;20120;-78
2022/09/27 04:25:35;;;;;;;5.88;0.70;;;;;;;8.54;95.44;99640.66;5032542;28;20036;-78
2022/09/27 04:28:01;;;;;;;7.72;0.90;;;;;;;8.51;94.61;99650.34;5028125;28;20516;-78
2022/09/27 04:30:27;;;;;;;3.08;0.70;;;;;;;8.45;94.66;99643.16;5041834;28;20025;-78
2022/09/27 04:32:53;;;;;;;3.47;0.40;;;;;;;8.50;94.49;99650.50;5022359;28;20100;-79
2022/09/27 04:38:02;;;;;;;1.98;0.43;;;;;;;8.45;93.16;99658.66;5049036;28;20420;-79
2022/09/27 04:40:28;;;;;;;2.35;0.55;;;;;;;8.41;92.93;99666.81;5041754;28;20025;-78
2022/09/27 04:42:54;;;;;;;2.17;0.52;;;;;;;8.36;93.55;99654.31;5049965;28;20104;-78
2022/09/27 04:45:20;;;;;;;2.80;0.70;;;;;;;8.30;93.76;99647.09;5041710;28;20152;-76
2022/09/27 04:47:47;;;;;;;4.47;1.13;;;;;;;8.12;94.86;99656.50;5037243;28;20461;-78
2022/09/27 04:50:13;;;;;;;1.58;0.60;;;;;;;8.22;95.09;99657.31;5044741;28;20040;-78
2022/09/27 04:52:39;;;;;;;3.92;1.05;;;;;;;8.20;95.69;99654.03;5040985;28;20017;-77
2022/09/27 04:55:06;;;;;;;3.58;1.05;;;;;;;8.22;96.33;99677.97;5041240;28;20461;-79
2022/09/27 04:57:32;;;;;;;6.03;1.20;;;;;;;8.16;96.79;99678.53;5044356;28;20043;-78
2022/09/27 04:59:59;;;;;;;5.95;1.30;;;;;;;8.11;97.55;99680.72;5041035;28;20025;-79
2022/09/27 05:02:26;;;;;;;4.93;0.90;;;;;;;8.17;97.53;99675.00;5047478;28;20067;-78
2022/09/27 05:04:52;;;;;;;5.53;1.10;;;;;;;8.25;97.33;99677.69;5033889;28;20025;-77
2022/09/27 05:07:17;;;;;;;5.53;1.17;;;;;;;8.23;97.87;99679.59;5040768;28;20036;-76
2022/09/27 05:09:44;;;;;;;4.15;1.20;;;;;;;8.21;97.76;99655.69;5035396;28;20028;-77
2022/09/27 05:12:10;;;;;;;4.45;0.82;;;;;;;8.16;97.74;99665.63;5037462;28;20072;-77
2022/09/27 05:14:36;;;;;;;1.85;0.80;;;;;;;8.19;98.17;99673.09;5041203;28;20053;-78
2022/09/27 05:17:01;;;;;;;3.20;0.98;;;;;;;8.19;98.39;99688.56;5045503;28;20029;-78
2022/09/27 05:19:27;;;;;;;3.90;0.98;;;;;;;8.22;97.71;99693.47;5048037;28;20064;-77
2022/09/27 05:21:52;;;;;;;6.30;1.10;;;;;;;8.19;98.27;99686.00;5030225;28;20025;-77
2022/09/27 05:24:17;;;;;;;2.92;1.15;;;;;;;8.18;98.30;99689.53;5046551;28;20028;-77
2022/09/27 05:26:44;;;;;;;2.33;0.80;;;;;;;8.17;97.89;99691.31;5036501;28;20455;-77
2022/09/27 05:29:10;;;;;;;1.92;0.70;;;;;;;8.17;98.08;99686.13;5027433;28;20128;-77
2022/09/27 05:31:35;;;;;;;2.90;0.90;;;;;;;8.17;98.61;99685.31;5038019;28;20112;-78
2022/09/27 05:34:01;;;;;;;5.65;1.10;;;;;;;8.14;98.74;99680.41;5036751;28;20029;-78
2022/09/27 05:36:26;;;;;;;3.55;0.93;;;;;;;8.15;98.67;99677.72;5044431;28;20104;-77
2022/09/27 05:38:53;;;;;;;3.75;0.73;;;;;;;8.15;98.65;99667.41;5039403;28;20123;-77
2022/09/27 05:41:18;;;;;;;4.82;1.05;;;;;;;8.02;98.30;99650.53;5046221;28;20016;-77
2022/09/27 05:43:45;;;;;;;2.22;0.80;;;;;;;8.12;97.80;99661.69;5043942;28;20102;-77
2022/09/27 05:46:11;;;;;;;4.82;1.08;;;;;;;7.98;98.67;99668.91;5035778;28;20072;-77
2022/09/27 05:48:36;;;;;;;3.30;0.85;;;;;;;8.03;98.07;99672.81;5038467;28;20029;-77
2022/09/27 05:51:02;;;;;;;2.50;1.08;;;;;;;8.00;98.67;99668.75;5039349;28;20048;-77
2022/09/27 05:53:27;;;;;;;3.10;1.13;;;;;;;7.98;98.59;99671.47;5038015;28;20033;-77
2022/09/27 05:55:53;;;;;;;1.23;0.60;;;;;;;8.06;98.62;99672.56;5040095;28;20416;-77
2022/09/27 05:58:18;;;;;;;4.93;0.93;;;;;;;7.96;98.36;99663.03;5036143;28;20541;-77
2022/09/27 06:00:44;;;;;;;5.22;0.90;;;;;;;7.98;98.71;99679.22;5036317;28;20457;-77
2022/09/27 06:03:11;;;;;;;1.05;0.52;;;;;;;8.05;99.07;99694.19;5033634;28;20524;-78
2022/09/27 06:05:38;;;;;;;2.85;0.50;;;;;;;8.08;99.00;99701.63;5029043;28;20027;-77
2022/09/27 06:08:09;;;;;;;2.80;0.75;;;;;;;8.10;98.77;99712.66;5046840;28;20040;-78
2022/09/27 06:10:35;;;;;;;1.83;0.85;;;;;;;8.13;99.31;99704.63;5044384;28;20115;-78
2022/09/27 06:13:10;;;;;;;3.35;0.93;;;;;;;8.09;99.26;99703.28;5047347;28;20028;-77
2022/09/27 06:15:38;;;;;;;1.80;0.65;;;;;;;8.09;99.03;99698.13;5047314;28;20043;-77
2022/09/27 06:18:16;;;;;;;4.10;1.03;;;;;;;8.11;99.46;99707.34;5029270;28;20173;-77
2022/09/27 06:20:42;;;;;;;2.03;0.80;;;;;;;8.15;99.62;99713.06;5040817;28;20286;-77
2022/09/27 06:23:17;;;;;;;2.60;0.73;;;;;;;8.13;99.21;99713.19;5048255;28;20020;-77
2022/09/27 06:25:43;;;;;;;5.75;0.93;;;;;;;8.19;99.38;99729.91;5044036;28;20029;-76
2022/09/27 06:28:09;;;;;;;4.03;0.85;;;;;;;8.18;99.38;99715.38;5046161;28;20495;-77
2022/09/27 06:30:39;;;;;;;2.55;0.70;;;;;;;8.23;99.68;99710.59;5024146;28;20060;-77
2022/09/27 06:33:05;;;;;;;2.22;0.70;;;;;;;8.25;99.82;99709.50;5029448;28;20598;-78
2022/09/27 06:35:30;;;;;;;1.65;0.50;;;;;;;8.18;99.45;99694.69;5028133;28;20057;-78
2022/09/27 06:37:56;;;;;;;2.67;0.60;;;;;;;8.32;100.00;99703.81;5046769;28;20104;-77
2022/09/27 06:40:25;;;;;;;2.42;0.70;;;;;;;8.34;99.49;99707.06;5036639;28;20034;-76
2022/09/27 06:42:50;;;;;;;3.83;1.13;;;;;;;8.36;99.77;99706.00;5045309;28;20033;-78
2022/09/27 06:45:15;;;;;;;3.13;0.90;;;;;;;8.31;99.87;99692.63;5043525;28;20013;-77
2022/09/27 06:47:41;;;;;;;3.25;0.60;;;;;;;8.39;99.99;99703.16;5045253;28;20053;-77
2022/09/27 06:50:06;;;;;;;4.35;1.05;;;;;;;8.37;100.00;99702.47;5043996;28;20033;-77
2022/09/27 08:22:49;;;;;;;6.43;2.65;;;;;;;8.59;100.00;99778.03;5083052;27;20475;-72
2022/09/27 08:25:14;;;;;;;6.65;2.63;;;;;;;8.64;100.00;99770.69;5046049;28;20076;-72
2022/09/27 08:27:40;;;;;;;6.90;3.25;;;;;;;8.68;100.00;99772.88;5047007;28;20025;-72
2022/09/27 08:30:07;;;;;;;6.20;3.03;;;;;;;8.78;100.00;99788.38;5054292;28;20033;-72
2022/09/27 08:32:37;;;;;;;6.72;3.45;;;;;;;8.79;100.00;99787.41;5036360;28;20028;-73
2022/09/27 08:35:14;;;;;;;7.05;3.03;;;;;;;8.87;100.00;99797.88;5048463;28;20021;-72
2022/09/27 08:37:39;;;;;;;7.57;3.83;;;;;;;8.87;100.00;99795.28;5253966;23;20013;-76
2022/09/27 08:40:06;;;;;;;5.57;3.03;;;;;;;8.86;100.00;99791.06;5056088;28;20048;-75
2022/09/27 08:42:44;;;;;;;5.82;3.42;;;;;;;8.93;100.00;99802.47;5057642;28;20041;-76
2022/09/27 08:45:27;;;;;;;8.65;4.13;;;;;;;8.93;100.00;99797.31;5051496;28;20048;-76
2022/09/27 08:47:57;;;;;;;6.78;4.13;;;;;;;8.97;100.00;99798.66;5048891;28;20051;-78
2022/09/27 08:50:34;;;;;;;8.45;4.78;;;;;;;8.98;100.00;99805.47;5056875;28;20474;-76
2022/09/27 08:53:30;;;;;;;8.00;5.22;;;;;;;8.93;100.00;99792.13;5057263;28;20033;-76
2022/09/27 08:55:58;;;;;;;7.72;5.05;;;;;;;8.89;100.00;99784.78;5034811;28;20040;-76
2022/09/27 08:58:26;;;;;;;8.68;5.50;;;;;;;8.92;100.00;99794.88;5061642;28;20086;-76
2022/09/27 09:01:11;;;;;;;8.82;5.15;;;;;;;8.90;100.00;99787.25;5058446;28;20052;-75
2022/09/27 09:03:42;;;;;;;9.32;5.50;;;;;;;8.92;100.00;99795.69;5046176;28;20025;-76
2022/09/27 09:06:18;;;;;;;9.60;5.45;;;;;;;8.91;100.00;99794.06;5052797;28;20783;-76
2022/09/27 09:09:22;;;;;;;8.68;5.00;;;;;;;8.95;100.00;99805.75;5055324;28;20033;-77
2022/09/27 09:15:05;;;;;;;7.03;4.60;;;;;;;8.97;100.00;99809.00;5057921;28;20837;-76
2022/09/27 09:17:51;;;;;;;6.80;4.05;;;;;;;9.02;100.00;99806.81;5057654;28;20020;-76
2022/09/27 09:20:26;;;;;;;7.22;4.68;;;;;;;9.02;100.00;99816.34;5049934;28;20268;-77
2022/09/27 09:23:07;;;;;;;8.63;4.05;;;;;;;9.02;100.00;99817.16;5048093;28;20100;-76
2022/09/27 09:25:59;;;;;;;7.10;4.38;;;;;;;9.03;100.00;99821.38;5038280;28;20108;-76
2022/09/27 09:28:40;;;;;;;6.40;4.38;;;;;;;9.03;100.00;99818.78;5053209;28;20032;-76
2022/09/27 09:31:18;;;;;;;8.80;4.93;;;;;;;9.01;100.00;99820.72;5040310;28;20021;-75
2022/09/27 09:33:51;;;;;;;6.13;3.85;;;;;;;9.03;100.00;99829.13;5046247;28;20036;-76
2022/09/27 09:36:28;;;;;;;9.48;5.50;;;;;;;8.99;100.00;99825.19;5041172;28;20051;-76
2022/09/27 09:39:01;;;;;;;7.50;4.25;;;;;;;9.01;100.00;99820.72;5043564;28;20037;-76
2022/09/27 09:41:40;;;;;;;4.50;2.92;;;;;;;9.08;100.00;99825.31;5049637;28;20036;-76
2022/09/27 09:44:18;;;;;;;6.18;3.75;;;;;;;9.08;100.00;99820.16;5037839;28;20029;-76
2022/09/27 09:46:54;;;;;;;5.55;3.25;;;;;;;9.08;100.00;99825.31;5018578;28;20021;-76
2022/09/27 09:49:41;;;;;;;6.32;2.97;;;;;;;9.10;100.00;99823.41;5043355;28;20036;-76
2022/09/27 09:52:15;;;;;;;6.05;2.88;;;;;;;9.12;100.00;99827.50;5043990;28;20032;-76
2022/09/27 09:54:50;;;;;;;5.07;2.60;;;;;;;9.15;100.00;99822.03;5042716;28;20036;-76
2022/09/27 09:57:40;;;;;;;6.72;3.08;;;;;;;9.22;100.00;99819.69;5053659;28;20505;-76
2022/09/27 10:00:13;;;;;;;5.20;1.85;;;;;;;9.21;100.00;99826.63;5035664;28;20032;-76
2022/09/27 10:02:44;;;;;;;5.15;2.13;;;;;;;9.16;100.00;99812.50;5035221;28;20053;-76
2022/09/27 10:05:18;;;;;;;3.47;1.73;;;;;;;9.20;100.00;99819.03;5037487;28;20128;-76
2022/09/27 10:08:06;;;;;;;4.35;1.90;;;;;;;9.27;100.00;99812.31;5040065;28;20036;-77
2022/09/27 10:10:33;;;;;;;4.63;2.13;;;;;;;9.26;100.00;99810.69;5024616;28;20029;-76
2022/09/27 10:13:20;;;;;;;5.07;2.58;;;;;;;9.23;100.00;99808.38;5049245;28;20043;-76
2022/09/27 10:15:55;;;;;;;7.40;2.58;;;;;;;9.24;100.00;99815.22;5034508;28;20683;-77
2022/09/27 10:25:09;;;;;;;5.07;2.00;;;;;;;9.20;100.00;99804.31;5048760;23;20357;-87
2022/09/27 10:27:42;;;;;;;2.95;1.20;;;;;;;9.30;100.00;99819.81;5046209;28;20516;-86
2022/09/27 10:30:26;;;;;;;3.50;1.23;;;;;;;9.34;100.00;99815.16;5020123;28;20029;-87
2022/09/27 10:32:57;;;;;;;3.85;1.45;;;;;;;9.24;99.84;99810.03;5044480;28;20032;-88
2022/09/27 10:35:28;;;;;;;6.10;1.58;;;;;;;9.34;99.92;99828.91;5026884;28;20037;-87
2022/09/27 10:38:20;;;;;;;3.70;1.20;;;;;;;9.34;99.60;99810.78;5046943;28;20033;-87
2022/09/27 10:40:47;;;;;;;5.30;1.23;;;;;;;9.23;98.41;99808.38;5046531;28;20401;-87
2022/09/27 10:43:30;;;;;;;2.58;1.15;;;;;;;9.41;98.73;99822.22;5022333;28;20466;-84
2022/09/27 10:46:05;;;;;;;6.40;1.50;;;;;;;9.43;99.44;99825.47;5040749;28;20033;-87
2022/09/27 10:48:30;;;;;;;3.42;1.98;;;;;;;9.43;99.57;99820.31;5046489;28;20355;-87
2022/09/27 10:51:03;;;;;;;4.68;2.22;;;;;;;9.36;99.23;99813.25;5025246;28;20063;-87
2022/09/27 10:53:30;;;;;;;4.80;2.38;;;;;;;9.45;99.88;99826.16;5044516;28;20083;-87
2022/09/27 10:55:56;;;;;;;3.75;2.05;;;;;;;9.49;99.93;99824.91;5045285;28;20048;-88
2022/09/27 10:58:33;;;;;;;7.38;2.97;;;;;;;9.46;100.00;99820.03;5027312;28;20025;-84
2022/09/27 11:01:08;;;;;;;5.10;2.78;;;;;;;9.55;100.00;99820.94;5041095;28;20022;-88
2022/09/27 11:03:46;;;;;;;5.40;2.45;;;;;;;9.61;100.00;99828.13;5043924;28;20064;-88
2022/09/27 11:06:39;;;;;;;3.88;2.22;;;;;;;9.65;99.62;99833.84;5034762;28;20025;-88
2022/09/27 11:09:25;;;;;;;5.60;2.30;;;;;;;9.61;99.77;99832.50;5026318;28;20950;-87
2022/09/27 11:12:11;;;;;;;3.78;2.10;;;;;;;9.68;99.91;99833.53;5020727;28;20123;-88
2022/09/27 11:14:37;;;;;;;4.70;1.98;;;;;;;9.55;99.53;99813.97;5043779;28;20044;-87
2022/09/27 11:17:11;;;;;;;4.78;2.17;;;;;;;9.62;100.00;99834.13;5043026;28;20029;-88
2022/09/27 11:20:13;;;;;;;5.05;1.25;;;;;;;9.66;99.69;99838.06;5040609;28;20045;-86
2022/09/27 11:23:02;;;;;;;6.07;1.38;;;;;;;9.63;99.27;99830.56;4966064;28;20030;-89
2022/09/27 11:25:33;;;;;;;5.15;1.35;;;;;;;9.57;99.19;99834.53;4971514;28;20400;-87
2022/09/27 11:28:09;;;;;;;4.00;1.15;;;;;;;9.50;98.77;99821.34;4964846;28;20039;-88
2022/09/27 11:31:11;;;;;;;3.70;1.10;;;;;;;9.56;99.46;99831.13;4966459;28;20479;-87
2022/09/27 11:33:45;;;;;;;3.13;1.05;;;;;;;9.54;98.29;99842.59;4970881;28;20638;-88
2022/09/27 11:36:16;;;;;;;3.35;1.20;;;;;;;9.60;98.64;99849.00;4950610;28;20034;-86
2022/09/27 11:39:29;;;;;;;1.85;0.93;;;;;;;9.54;98.46;99848.59;4947888;28;20040;-86
2022/09/27 11:42:05;;;;;;;8.35;1.13;;;;;;;9.41;97.83;99848.09;4948079;28;20126;-87
2022/09/27 11:44:38;;;;;;;2.90;0.80;;;;;;;9.25;97.19;99845.28;4943363;28;20058;-84
2022/09/27 11:47:14;;;;;;;2.97;0.77;;;;;;;9.19;96.20;99843.28;4941708;28;20052;-84
2022/09/27 11:49:49;;;;;;;2.13;0.73;;;;;;;9.21;96.30;99842.16;4930897;28;20309;-85
2022/09/27 11:52:17;;;;;;;3.10;1.02;;;;;;;9.21;96.78;99844.75;4949777;28;20536;-85
2022/09/27 11:55:08;;;;;;;1.80;0.80;;;;;;;9.22;97.37;99837.78;4941438;28;20041;-84
2022/09/27 11:58:18;;;;;;;4.20;0.98;;;;;;;9.30;98.17;99841.31;4952763;28;20046;-84
2022/09/27 12:01:20;;;;;;;1.90;0.93;;;;;;;9.33;97.78;99840.22;4961319;28;20146;-84
2022/09/27 12:04:15;;;;;;;2.25;0.80;;;;;;;9.25;96.82;99828.00;4964780;28;20050;-84
2022/09/27 12:06:57;;;;;;;2.13;0.90;;;;;;;9.21;97.88;99820.66;4962885;28;20038;-84
2022/09/27 12:09:30;;;;;;;2.38;0.75;;;;;;;9.07;96.98;99828.88;4955717;28;20055;-84
2022/09/27 12:12:05;;;;;;;4.00;0.90;;;;;;;8.98;96.88;99820.97;4956253;28;20039;-84
2022/09/27 12:14:49;;;;;;;2.58;0.60;;;;;;;9.11;96.40;99835.38;4941634;28;20035;-83
2022/09/27 12:17:28;;;;;;;3.20;0.70;;;;;;;9.02;95.85;99822.34;4994851;28;20025;-84
2022/09/27 12:19:58;;;;;;;0.70;0.40;;;;;;;8.94;95.61;99809.28;5006396;28;20014;-83
2022/09/27 12:22:32;;;;;;;2.38;0.60;;;;;;;8.96;96.34;99822.91;5005902;28;20029;-83
2022/09/27 12:24:58;;;;;;;1.65;0.40;;;;;;;8.88;94.14;99809.84;5011008;28;20562;-83
2022/09/27 12:27:35;;;;;;;2.80;0.40;;;;;;;8.92;95.05;99811.19;5024689;28;20109;-83
2022/09/27 12:30:01;;;;;;;1.05;0.40;;;;;;;8.83;95.26;99806.88;5024519;28;20105;-84
2022/09/27 12:32:46;;;;;;;3.10;0.50;;;;;;;8.85;95.40;99815.28;5022689;28;20034;-85
2022/09/27 12:35:20;;;;;;;0.85;0.40;;;;;;;8.86;94.37;99809.16;5025072;28;20045;-85
2022/09/27 12:37:52;;;;;;;3.28;0.93;;;;;;;8.88;95.34;99817.59;5023753;28;20057;-86
2022/09/27 12:40:24;;;;;;;1.75;0.43;;;;;;;8.95;96.32;99821.28;5023632;28;20096;-84
2022/09/27 12:42:55;;;;;;;1.48;0.43;;;;;;;8.66;94.64;99799.78;5022772;28;20053;-85
2022/09/27 12:45:37;;;;;;;1.90;0.75;;;;;;;8.88;93.92;99809.84;5024719;28;20063;-84
2022/09/27 12:48:24;;;;;;;1.50;0.45;;;;;;;8.83;95.60;99801.69;5023902;28;20029;-84
2022/09/27 12:50:54;;;;;;;1.85;0.45;;;;;;;8.83;94.42;99812.03;5023934;28;20051;-85
2022/09/27 12:53:25;;;;;;;0.50;0.40;;;;;;;8.86;94.65;99796.25;5023264;28;20115;-85
2022/09/27 12:56:20;;;;;;;2.67;0.40;;;;;;;8.91;94.57;99799.22;5014864;28;20496;-86
2022/09/27 12:58:57;;;;;;;0.82;0.50;;;;;;;8.98;95.66;99797.69;5027870;28;20044;-85
2022/09/27 13:01:55;;;;;;;0.90;0.35;;;;;;;9.08;96.06;99799.47;5027293;28;20544;-84
2022/09/27 13:04:39;;;;;;;3.05;0.57;;;;;;;9.09;96.52;99798.50;5008934;28;20038;-85
2022/09/27 13:07:26;;;;;;;1.48;0.50;;;;;;;9.15;96.52;99796.16;5025782;28;20026;-85
2022/09/27 13:10:10;;;;;;;0.70;0.40;;;;;;;9.13;96.19;99797.28;5023963;28;20052;-85
2022/09/27 13:12:38;;;;;;;1.15;0.60;;;;;;;9.20;95.87;99800.91;5029315;28;20109;-85
2022/09/27 13:15:31;;;;;;;0.38;0.30;;;;;;;9.24;95.69;99800.50;5026580;28;20035;-85
2022/09/27 13:18:02;;;;;;;0.70;0.40;;;;;;;9.05;93.79;99785.03;5027973;28;20044;-85
2022/09/27 13:20:33;;;;;;;1.38;0.50;;;;;;;9.12;94.25;99790.44;5026511;28;20469;-86
2022/09/27 13:23:01;;;;;;;1.85;0.50;;;;;;;9.17;93.05;99790.84;5023915;28;20239;-85
2022/09/27 13:25:45;;;;;;;1.55;0.50;;;;;;;9.26;94.77;99787.41;5040999;28;20053;-86
2022/09/27 13:28:35;;;;;;;1.42;0.50;;;;;;;9.25;95.03;99790.97;5027113;28;20021;-86
2022/09/27 13:31:06;;;;;;;0.88;0.40;;;;;;;9.26;94.80;99784.81;5022626;28;20064;-86
2022/09/27 13:33:45;;;;;;;1.95;0.40;;;;;;;9.24;93.60;99784.97;5047555;28;20033;-85
2022/09/27 13:36:23;;;;;;;2.72;1.02;;;;;;;9.32;94.30;99792.81;5043903;28;20033;-85
2022/09/27 13:39:04;;;;;;;1.48;0.80;;;;;;;9.39;94.99;99793.06;5044250;28;20028;-87
2022/09/27 13:41:47;;;;;;;5.40;0.98;;;;;;;9.38;95.10;99786.28;5029146;28;20037;-86
2022/09/27 13:44:36;;;;;;;2.58;0.55;;;;;;;9.45;94.54;99782.13;5045112;28;20029;-86
2022/09/27 13:47:23;;;;;;;0.90;0.47;;;;;;;9.51;95.00;99778.97;5028391;28;20036;-86
2022/09/27 13:49:50;;;;;;;1.95;0.45;;;;;;;9.52;93.56;99778.03;5019518;28;20029;-86
2022/09/27 13:52:33;;;;;;;3.00;0.40;;;;;;;9.57;93.34;99775.81;5044284;28;20073;-85